Time;durP1;ratioP1;P1;durP2;ratioP2;P2;SDS_P1;SDS_P2;PMS_P1;PMS_P2;Temp;Humidity;BMP_temperature;BMP_pressure;BME280_temperature;BME280_humidity;BME280_pressure;Samples;Min_cycle;Max_cycle;Signal;HPM_P1;HPM_P2
2024/04/18 00:02:19;;;;;;;;;;;;;;;3.48;100.00;98957.78;5326390;26;20020;-59
2024/04/18 00:04:49;;;;;;;;;;;;;;;3.48;100.00;98950.63;5322739;26;20009;-59
2024/04/18 00:07:30;;;;;;;;;;;;;;;3.28;100.00;98955.09;5326087;26;19933;-59
2024/04/18 00:10:15;;;;;;;;;;;;;;;3.14;100.00;98955.06;5320585;26;19936;-58
2024/04/18 00:12:45;;;;;;;;;;;;;;;3.22;100.00;98962.00;5319574;26;19932;-58
2024/04/18 00:15:23;;;;;;;;;;;;;;;3.37;100.00;98960.00;5325921;26;20266;-59
2024/04/18 00:17:58;;;;;;;;;;;;;;;3.48;100.00;98958.59;5317508;26;19973;-59
2024/04/18 00:20:29;;;;;;;;;;;;;;;3.54;100.00;98963.06;5326390;26;19926;-58
2024/04/18 00:23:16;;;;;;;;;;;;;;;3.72;100.00;98957.16;5323870;26;20372;-58
2024/04/18 00:26:07;;;;;;;;;;;;;;;3.65;100.00;98966.94;5323409;26;19938;-58
2024/04/18 00:28:59;;;;;;;;;;;;;;;3.68;100.00;98969.19;5321431;26;19934;-58
2024/04/18 00:31:27;;;;;;;;;;;;;;;3.77;100.00;98967.13;5326609;26;19926;-58
2024/04/18 00:33:59;;;;;;;;;;;;;;;3.84;100.00;98965.28;5327880;26;20442;-58
2024/04/18 00:36:28;;;;;;;;;;;;;;;3.57;100.00;98972.44;5309349;26;19958;-58
2024/04/18 00:38:58;;;;;;;;;;;;;;;3.64;100.00;98968.78;5325568;26;19957;-58
2024/04/18 00:41:25;;;;;;;;;;;;;;;3.78;100.00;98968.78;5321337;26;19947;-59
2024/04/18 00:44:03;;;;;;;;;;;;;;;3.59;100.00;98971.22;5307100;26;20001;-58
2024/04/18 00:46:33;;;;;;;;;;;;;;;3.58;100.00;98968.78;5321010;26;19933;-59
2024/04/18 00:49:24;;;;;;;;;;;;;;;3.57;100.00;98973.28;5326775;26;20708;-59
2024/04/18 00:51:52;;;;;;;;;;;;;;;3.37;100.00;98970.59;5309125;26;20254;-58
2024/04/18 00:54:24;;;;;;;;;;;;;;;3.39;100.00;98973.03;5315588;26;19934;-58
2024/04/18 00:56:57;;;;;;;;;;;;;;;3.27;100.00;98970.19;5325586;26;20319;-58
2024/04/18 00:59:30;;;;;;;;;;;;;;;3.50;100.00;98975.09;5322030;26;20285;-58
2024/04/18 01:02:16;;;;;;;;;;;;;;;3.53;100.00;98977.34;5317584;26;19954;-58
2024/04/18 01:05:06;;;;;;;;;;;;;;;3.31;100.00;98975.88;5327119;26;20387;-58
2024/04/18 01:07:40;;;;;;;;;;;;;;;3.28;100.00;98977.09;5351760;26;19942;-58
2024/04/18 01:10:22;;;;;;;;;;;;;;;3.39;100.00;98973.03;5325739;26;19926;-58
2024/04/18 01:12:56;;;;;;;;;;;;;;;3.37;100.00;98975.91;5326346;26;19933;-59
2024/04/18 01:15:49;;;;;;;;;;;;;;;3.26;100.00;98976.47;5329611;26;19926;-58
2024/04/18 01:18:19;;;;;;;;;;;;;;;3.16;100.00;98974.22;5325622;26;19940;-58
2024/04/18 01:20:49;;;;;;;;;;;;;;;3.39;100.00;98983.63;5325351;26;19933;-59
2024/04/18 01:23:16;;;;;;;;;;;;;;;3.31;100.00;98978.53;5325361;26;19934;-58
2024/04/18 01:25:49;;;;;;;;;;;;;;;3.22;100.00;98978.72;5326128;26;19926;-58
2024/04/18 01:28:21;;;;;;;;;;;;;;;3.30;100.00;98980.38;5323640;26;19926;-58
2024/04/18 01:31:03;;;;;;;;;;;;;;;3.28;100.00;98981.59;5327902;26;19932;-59
2024/04/18 01:33:33;;;;;;;;;;;;;;;3.39;100.00;98983.63;5322144;26;20244;-58
2024/04/18 01:36:03;;;;;;;;;;;;;;;3.41;100.00;98986.91;5328623;26;19926;-58
2024/04/18 01:38:49;;;;;;;;;;;;;;;3.59;100.00;98984.47;5318220;26;19926;-58
2024/04/18 01:41:31;;;;;;;;;;;;;;;3.41;100.00;98986.91;5324523;26;19926;-58
2024/04/18 01:44:03;;;;;;;;;;;;;;;3.36;100.00;98984.84;5329854;26;20013;-59
2024/04/18 01:46:51;;;;;;;;;;;;;;;3.26;100.00;98988.91;5353351;26;19932;-58
2024/04/18 01:49:30;;;;;;;;;;;;;;;3.26;100.00;98991.56;5329750;26;19942;-59
2024/04/18 01:52:00;;;;;;;;;;;;;;;3.40;100.00;98990.56;5328929;26;19926;-58
2024/04/18 01:54:30;;;;;;;;;;;;;;;3.50;100.00;98993.66;5321822;26;19938;-58
2024/04/18 01:57:03;;;;;;;;;;;;;;;3.35;100.00;98993.81;5325172;26;19934;-59
2024/04/18 02:00:10;;;;;;;;;;;;;;;3.46;100.00;99000.34;5267084;26;19989;-59
2024/04/18 02:02:37;;;;;;;;;;;;;;;3.58;100.00;99000.59;5327547;26;20361;-58
2024/04/18 02:05:10;;;;;;;;;;;;;;;3.51;100.00;99008.50;5319573;26;19926;-58
2024/04/18 02:07:43;;;;;;;;;;;;;;;3.31;100.00;99002.38;5330847;26;19955;-58
2024/04/18 02:10:15;;;;;;;;;;;;;;;3.29;100.00;98999.09;5327310;26;19934;-58
2024/04/18 02:13:00;;;;;;;;;;;;;;;3.40;100.00;99009.13;5348718;26;19926;-59
2024/04/18 02:15:48;;;;;;;;;;;;;;;3.34;100.00;99012.56;5324191;26;19938;-58
2024/04/18 02:18:15;;;;;;;;;;;;;;;3.29;100.00;99009.69;5329485;26;20009;-58
2024/04/18 02:20:45;;;;;;;;;;;;;;;3.60;100.00;99015.25;5327499;26;19996;-58
2024/04/18 02:23:22;;;;;;;;;;;;;;;3.53;100.00;99016.28;5325721;26;19932;-58
2024/04/18 02:26:01;;;;;;;;;;;;;;;3.40;100.00;99012.59;5328636;26;19933;-58
2024/04/18 02:28:31;;;;;;;;;;;;;;;3.37;100.00;99012.16;5312725;26;20063;-58
2024/04/18 02:31:22;;;;;;;;;;;;;;;3.36;100.00;99010.53;5325899;26;20123;-58
2024/04/18 02:33:52;;;;;;;;;;;;;;;3.37;100.00;99017.44;5322029;26;19927;-58
2024/04/18 02:36:23;;;;;;;;;;;;;;;3.36;100.00;99011.34;5333694;26;20009;-58
2024/04/18 02:38:51;;;;;;;;;;;;;;;3.46;100.00;99010.94;5329702;26;20341;-58
2024/04/18 02:41:21;;;;;;;;;;;;;;;3.24;100.00;99013.78;5315487;26;19934;-58
2024/04/18 02:43:52;;;;;;;;;;;;;;;3.29;100.00;99020.28;5326933;26;19941;-57
2024/04/18 02:46:27;;;;;;;;;;;;;;;3.20;100.00;99020.47;5326600;26;19934;-57
2024/04/18 02:49:12;;;;;;;;;;;;;;;3.22;100.00;99022.91;5319677;26;20053;-60
2024/04/18 02:51:59;;;;;;;;;;;;;;;3.35;100.00;99027.47;5326526;26;19926;-57
2024/04/18 02:54:44;;;;;;;;;;;;;;;3.37;100.00;99033.34;5330307;26;19956;-58
2024/04/18 02:57:15;;;;;;;;;;;;;;;3.39;100.00;99034.78;5325303;26;19932;-58
2024/04/18 02:59:42;;;;;;;;;;;;;;;3.27;100.00;99028.47;5331150;26;20243;-58
2024/04/18 03:02:28;;;;;;;;;;;;;;;3.42;100.00;99031.75;5328634;26;19949;-58
2024/04/18 03:05:16;;;;;;;;;;;;;;;3.53;100.00;99034.81;5324314;26;19934;-58
2024/04/18 03:07:56;;;;;;;;;;;;;;;3.43;100.00;99037.84;5327394;26;19934;-58
2024/04/18 03:10:47;;;;;;;;;;;;;;;3.52;100.00;99044.63;5328303;26;19926;-58
2024/04/18 03:13:38;;;;;;;;;;;;;;;3.59;100.00;99041.94;5322491;26;20055;-58
2024/04/18 03:16:30;;;;;;;;;;;;;;;3.53;100.00;99048.06;5313271;26;19926;-58
2024/04/18 03:19:26;;;;;;;;;;;;;;;3.64;100.00;99037.69;5309199;26;20000;-58
2024/04/18 03:21:53;;;;;;;;;;;;;;;3.50;100.00;99044.00;5323974;26;19973;-58
2024/04/18 03:24:24;;;;;;;;;;;;;;;3.65;100.00;99052.56;5327269;26;19926;-58
2024/04/18 03:26:52;;;;;;;;;;;;;;;3.56;100.00;99048.47;5324906;26;20367;-58
2024/04/18 03:29:22;;;;;;;;;;;;;;;3.50;100.00;99049.28;5325068;26;19938;-58
2024/04/18 03:31:55;;;;;;;;;;;;;;;3.28;100.00;99051.28;5329140;26;19961;-60
2024/04/18 03:34:51;;;;;;;;;;;;;;;3.37;100.00;99055.38;5328686;26;19926;-60
2024/04/18 03:37:21;;;;;;;;;;;;;;;3.51;100.00;99056.22;5320179;26;19926;-60
2024/04/18 03:39:54;;;;;;;;;;;;;;;3.41;100.00;99053.13;5323055;26;20373;-60
2024/04/18 03:42:24;;;;;;;;;;;;;;;3.30;100.00;99056.38;5321446;26;19941;-60
2024/04/18 03:44:54;;;;;;;;;;;;;;;3.32;100.00;99054.31;5329464;26;19926;-60
2024/04/18 03:47:26;;;;;;;;;;;;;;;3.38;100.00;99062.31;5327588;26;19926;-60
2024/04/18 03:50:13;;;;;;;;;;;;;;;3.34;100.00;99057.59;5329523;26;19926;-60
2024/04/18 03:52:41;;;;;;;;;;;;;;;3.48;100.00;99061.91;5324513;26;19927;-60
2024/04/18 03:55:29;;;;;;;;;;;;;;;3.32;100.00;99063.13;5325187;26;19973;-60
2024/04/18 03:57:56;;;;;;;;;;;;;;;3.29;100.00;99065.31;5327198;26;20408;-60
2024/04/18 04:00:45;;;;;;;;;;;;;;;3.40;100.00;99075.34;5328772;26;19965;-59
2024/04/18 04:03:15;;;;;;;;;;;;;;;3.38;100.00;99074.75;5320455;26;20353;-60
2024/04/18 04:05:48;;;;;;;;;;;;;;;3.41;100.00;99082.28;5324291;26;19934;-60
2024/04/18 04:08:15;;;;;;;;;;;;;;;3.42;100.00;99079.44;5323108;26;19941;-60
2024/04/18 04:10:46;;;;;;;;;;;;;;;3.38;100.00;99082.69;5324313;26;19977;-60
2024/04/18 04:13:14;;;;;;;;;;;;;;;3.65;100.00;99084.38;5326617;26;19937;-60
2024/04/18 04:15:45;;;;;;;;;;;;;;;3.54;100.00;99095.56;5320806;26;19941;-59
2024/04/18 04:18:33;;;;;;;;;;;;;;;3.60;100.00;99096.59;5323364;26;20011;-60
2024/04/18 04:21:22;;;;;;;;;;;;;;;3.74;100.00;99097.44;5326737;26;19934;-60
2024/04/18 04:23:50;;;;;;;;;;;;;;;3.75;100.00;99102.56;5320907;26;19926;-58
2024/04/18 04:26:20;;;;;;;;;;;;;;;3.65;100.00;99110.88;5316975;26;19926;-60
2024/04/18 04:28:48;;;;;;;;;;;;;;;3.77;100.00;99118.25;5294209;26;19941;-60
2024/04/18 04:31:18;;;;;;;;;;;;;;;3.88;100.00;99120.31;5313170;26;19933;-60
2024/04/18 04:33:46;;;;;;;;;;;;;;;3.82;100.00;99123.75;5325320;26;19932;-60
2024/04/18 04:36:16;;;;;;;;;;;;;;;3.88;100.00;99125.63;5319057;26;19989;-60
2024/04/18 04:38:46;;;;;;;;;;;;;;;3.80;100.00;99129.28;5327409;26;19940;-60
2024/04/18 04:41:36;;;;;;;;;;;;;;;3.84;100.00;99132.31;5322077;26;19933;-60
2024/04/18 04:44:03;;;;;;;;;;;;;;;3.88;100.00;99136.22;5322312;26;19996;-60
2024/04/18 04:46:49;;;;;;;;;;;;;;;3.74;100.00;99139.84;5321256;26;19926;-60
2024/04/18 04:49:17;;;;;;;;;;;;;;;3.85;100.00;99140.09;5324732;26;19996;-58
2024/04/18 04:52:04;;;;;;;;;;;;;;;3.96;100.00;99148.47;5324346;26;19926;-60
2024/04/18 04:54:46;;;;;;;;;;;;;;;3.89;100.00;99144.00;5328488;26;19926;-60
2024/04/18 04:57:16;;;;;;;;;;;;;;;3.88;100.00;99152.13;5325904;26;20264;-59
2024/04/18 04:59:44;;;;;;;;;;;;;;;3.88;100.00;99158.25;5326690;26;19941;-60
2024/04/18 05:02:14;;;;;;;;;;;;;;;3.84;100.00;99161.50;5325471;26;19926;-60
2024/04/18 05:04:47;;;;;;;;;;;;;;;4.01;100.00;99165.41;5327002;26;19926;-60
2024/04/18 05:07:35;;;;;;;;;;;;;;;3.92;100.00;99169.28;5327754;26;20373;-60
2024/04/18 05:10:24;;;;;;;;;;;;;;;3.95;100.00;99179.47;5325965;26;20365;-60
2024/04/18 05:12:54;;;;;;;;;;;;;;;4.06;100.00;99176.22;5326721;26;20403;-61
2024/04/18 05:15:33;;;;;;;;;;;;;;;3.99;100.00;99185.19;5320108;26;20290;-60
2024/04/18 05:18:03;;;;;;;;;;;;;;;4.00;100.00;99182.34;5328119;26;20559;-60
2024/04/18 05:20:31;;;;;;;;;;;;;;;4.05;100.00;99177.25;5321272;26;19937;-60
2024/04/18 05:23:04;;;;;;;;;;;;;;;3.98;100.00;99189.69;5317742;26;19926;-60
2024/04/18 05:25:37;;;;;;;;;;;;;;;4.13;100.00;99196.66;5322434;26;19934;-60
2024/04/18 05:28:30;;;;;;;;;;;;;;;4.13;100.00;99196.66;5331437;26;20442;-60
2024/04/18 05:31:04;;;;;;;;;;;;;;;4.10;100.00;99198.69;5317431;26;19927;-61
2024/04/18 05:33:35;;;;;;;;;;;;;;;4.36;100.00;99205.03;5293940;26;19934;-60
2024/04/18 05:36:05;;;;;;;;;;;;;;;4.35;100.00;99200.78;5320072;26;19996;-60
2024/04/18 05:38:35;;;;;;;;;;;;;;;4.10;100.00;99208.50;5323389;26;19933;-60
2024/04/18 05:41:08;;;;;;;;;;;;;;;4.23;100.00;99208.50;5322874;26;20641;-60
2024/04/18 05:43:50;;;;;;;;;;;;;;;4.22;100.00;99206.88;5321634;26;19926;-59
2024/04/18 05:46:20;;;;;;;;;;;;;;;4.15;100.00;99210.53;5335393;26;20400;-60
2024/04/18 05:48:50;;;;;;;;;;;;;;;4.22;100.00;99217.50;5323252;26;19926;-60
2024/04/18 05:51:20;;;;;;;;;;;;;;;4.27;100.00;99214.25;5350444;26;20372;-60
2024/04/18 05:54:14;;;;;;;;;;;;;;;4.25;100.00;99216.28;5325289;26;19977;-60
2024/04/18 05:57:10;;;;;;;;;;;;;;;4.27;100.00;99222.19;5321605;26;19937;-60
2024/04/18 05:59:55;;;;;;;;;;;;;;;4.28;100.00;99226.47;5330042;26;20688;-60
2024/04/18 06:02:25;;;;;;;;;;;;;;;4.20;100.00;99240.75;5327136;26;19926;-60
2024/04/18 06:04:57;;;;;;;;;;;;;;;4.07;100.00;99241.53;5328994;26;19941;-60
2024/04/18 06:07:46;;;;;;;;;;;;;;;4.17;100.00;99248.28;5329883;26;19926;-60
2024/04/18 06:10:16;;;;;;;;;;;;;;;4.27;100.00;99257.50;5292732;26;19996;-58
2024/04/18 06:12:49;;;;;;;;;;;;;;;4.23;100.00;99255.44;5329741;26;19925;-58
2024/04/18 06:15:18;;;;;;;;;;;;;;;4.37;100.00;99253.63;5327299;26;19926;-58
2024/04/18 06:17:48;;;;;;;;;;;;;;;4.46;100.00;99261.19;5326127;26;20308;-60
2024/04/18 06:20:18;;;;;;;;;;;;;;;4.34;100.00;99262.81;5327781;26;19926;-60
2024/04/18 06:22:52;;;;;;;;;;;;;;;4.43;100.00;99266.91;5330829;26;20441;-60
2024/04/18 06:25:29;;;;;;;;;;;;;;;4.50;100.00;99264.28;5322021;26;19981;-60
2024/04/18 06:28:02;;;;;;;;;;;;;;;4.38;100.00;99273.84;5324443;26;19933;-60
2024/04/18 06:30:32;;;;;;;;;;;;;;;4.40;100.00;99274.47;5321529;26;20339;-60
2024/04/18 06:33:02;;;;;;;;;;;;;;;4.47;100.00;99283.28;5326728;26;20312;-60
2024/04/18 06:35:32;;;;;;;;;;;;;;;4.43;100.00;99282.84;5326336;26;19942;-61
2024/04/18 06:38:02;;;;;;;;;;;;;;;4.61;100.00;99284.09;5327391;26;19926;-61
2024/04/18 06:40:32;;;;;;;;;;;;;;;4.56;100.00;99286.53;5328143;26;19933;-60
2024/04/18 06:43:05;;;;;;;;;;;;;;;4.64;100.00;99296.97;5321211;26;19970;-60
2024/04/18 06:45:38;;;;;;;;;;;;;;;4.70;100.00;99299.63;5325394;26;19936;-60
2024/04/18 06:48:09;;;;;;;;;;;;;;;4.68;100.00;99295.53;5326773;26;19926;-60
2024/04/18 06:50:39;;;;;;;;;;;;;;;4.63;100.00;99290.03;5324530;26;19933;-60
2024/04/18 06:53:09;;;;;;;;;;;;;;;4.70;100.00;99298.81;5329503;26;20344;-60
2024/04/18 06:55:40;;;;;;;;;;;;;;;4.52;100.00;99297.56;5326945;26;19996;-60
2024/04/18 06:58:12;;;;;;;;;;;;;;;4.70;100.00;99304.13;5330743;26;19937;-60
2024/04/18 07:00:42;;;;;;;;;;;;;;;4.74;100.00;99300.03;5326821;26;20502;-60
2024/04/18 07:03:12;;;;;;;;;;;;;;;5.05;100.00;99309.25;5330905;26;20001;-60
2024/04/18 07:05:54;;;;;;;;;;;;;;;5.22;100.00;99313.16;5329800;26;19926;-60
2024/04/18 07:08:24;;;;;;;;;;;;;;;5.46;100.00;99319.63;5328947;26;19933;-60
2024/04/18 07:10:58;;;;;;;;;;;;;;;5.10;100.00;99314.78;5329004;26;20826;-60
2024/04/18 07:13:34;;;;;;;;;;;;;;;5.06;100.00;99319.66;5315832;26;19945;-60
2024/04/18 07:16:22;;;;;;;;;;;;;;;5.08;100.00;99328.25;5321063;26;19962;-60
2024/04/18 07:18:55;;;;;;;;;;;;;;;5.05;100.00;99338.50;5327385;26;19946;-60
2024/04/18 07:21:25;;;;;;;;;;;;;;;5.12;100.00;99336.66;5325834;26;19935;-60
2024/04/18 07:24:15;;;;;;;;;;;;;;;4.98;100.00;99333.16;5322859;26;19937;-60
2024/04/18 07:26:45;;;;;;;;;;;;;;;5.01;100.00;99345.22;5321065;26;19933;-60
2024/04/18 07:29:18;;;;;;;;;;;;;;;4.84;100.00;99342.97;5328749;26;19958;-60
2024/04/18 07:31:51;;;;;;;;;;;;;;;5.17;100.00;99342.97;5312267;26;19926;-60
2024/04/18 07:34:20;;;;;;;;;;;;;;;5.29;100.00;99355.63;5315639;26;19997;-60
2024/04/18 07:36:50;;;;;;;;;;;;;;;5.20;100.00;99355.03;5329879;26;20281;-60
2024/04/18 07:39:24;;;;;;;;;;;;;;;5.25;100.00;99370.38;5321732;26;20355;-59
2024/04/18 07:41:54;;;;;;;;;;;;;;;5.09;100.00;99369.75;5327536;26;19930;-59
2024/04/18 07:44:29;;;;;;;;;;;;;;;5.22;100.00;99374.25;5308514;26;19926;-59
2024/04/18 07:46:59;;;;;;;;;;;;;;;5.08;100.00;99380.59;5326226;26;19933;-59
2024/04/18 07:49:29;;;;;;;;;;;;;;;4.80;100.00;99381.56;5356586;26;19996;-59
2024/04/18 07:51:59;;;;;;;;;;;;;;;5.08;100.00;99380.59;5352784;26;19925;-58
2024/04/18 07:54:32;;;;;;;;;;;;;;;5.04;100.00;99382.00;5325709;26;19963;-58
2024/04/18 07:57:06;;;;;;;;;;;;;;;5.06;100.00;99388.75;5313108;26;19942;-59
2024/04/18 07:59:39;;;;;;;;;;;;;;;5.32;100.00;99398.59;5335847;26;19940;-58
2024/04/18 08:02:09;;;;;;;;;;;;;;;5.44;100.00;99397.97;5323771;26;20004;-59
2024/04/18 08:04:40;;;;;;;;;;;;;;;5.21;100.00;99401.03;5325703;26;19930;-59
2024/04/18 08:07:12;;;;;;;;;;;;;;;5.29;100.00;99409.63;5320893;26;19958;-58
2024/04/18 08:09:43;;;;;;;;;;;;;;;5.10;100.00;99405.13;5323914;26;20354;-58
2024/04/18 08:12:14;;;;;;;;;;;;;;;5.11;100.00;99409.41;5326520;26;20253;-58
2024/04/18 08:14:48;;;;;;;;;;;;;;;5.48;100.00;99412.50;5328441;26;19956;-58
2024/04/18 08:17:19;;;;;;;;;;;;;;;5.87;100.00;99411.66;5323774;26;20308;-58
2024/04/18 08:19:51;;;;;;;;;;;;;;;5.72;100.00;99414.53;5319854;26;19933;-58
2024/04/18 08:22:24;;;;;;;;;;;;;;;5.63;100.00;99418.41;5324634;26;19932;-59
2024/04/18 08:24:57;;;;;;;;;;;;;;;5.69;100.00;99419.44;5328138;26;19926;-58
2024/04/18 08:27:28;;;;;;;;;;;;;;;5.78;100.00;99427.00;5318534;26;20307;-58
2024/04/18 08:30:03;;;;;;;;;;;;;;;5.78;100.00;99431.50;5326604;26;19965;-58
2024/04/18 08:32:37;;;;;;;;;;;;;;;5.46;100.00;99433.94;5323189;26;19940;-59
2024/04/18 08:35:09;;;;;;;;;;;;;;;5.62;100.00;99441.53;5325111;26;20046;-58
2024/04/18 08:37:43;;;;;;;;;;;;;;;5.43;100.00;99442.34;5321923;26;19933;-58
2024/04/18 08:40:14;;;;;;;;;;;;;;;5.67;100.00;99443.59;5327585;26;19926;-58
2024/04/18 08:42:45;;;;;;;;;;;;;;;5.65;100.00;99448.28;5317126;26;19926;-58
2024/04/18 08:45:18;;;;;;;;;;;;;;;5.74;100.00;99449.72;5322230;26;19933;-59
2024/04/18 08:47:51;;;;;;;;;;;;;;;5.89;100.00;99454.00;5329803;26;20156;-59
2024/04/18 08:50:23;;;;;;;;;;;;;;;5.73;100.00;99458.72;5325419;26;20000;-59
2024/04/18 08:52:55;;;;;;;;;;;;;;;5.68;100.00;99461.16;5357549;26;19940;-59
2024/04/18 08:55:25;;;;;;;;;;;;;;;5.58;100.00;99455.44;5325919;26;19926;-59
2024/04/18 08:57:56;;;;;;;;;;;;;;;5.94;100.00;99463.03;5318917;26;19926;-58
2024/04/18 09:00:33;;;;;;;;;;;;;;;5.91;100.00;99460.75;5322752;26;20330;-59
2024/04/18 09:03:03;;;;;;;;;;;;;;;6.21;100.00;99469.13;5342669;26;19975;-58
2024/04/18 09:05:33;;;;;;;;;;;;;;;6.53;100.00;99469.25;5322449;26;19933;-59
2024/04/18 09:08:09;;;;;;;;;;;;;;;7.04;100.00;99475.56;5327261;26;19930;-59
2024/04/18 09:10:36;;;;;;;;;;;;;;;7.37;100.00;99474.59;5317459;26;19937;-59
2024/04/18 09:13:06;;;;;;;;;;;;;;;7.37;100.00;99480.72;5327094;26;19932;-59
2024/04/18 09:15:39;;;;;;;;;;;;;;;6.91;100.00;99492.44;5322107;26;19926;-59
2024/04/18 09:18:12;;;;;;;;;;;;;;;6.97;100.00;99488.13;5331719;26;19926;-59
2024/04/18 09:20:43;;;;;;;;;;;;;;;6.56;100.00;99492.78;5323196;26;20367;-59
2024/04/18 09:23:13;;;;;;;;;;;;;;;6.55;100.00;99496.47;5322708;26;19926;-59
2024/04/18 09:25:43;;;;;;;;;;;;;;;6.78;100.00;99495.97;5320208;26;19958;-58
2024/04/18 09:28:13;;;;;;;;;;;;;;;6.99;100.00;99499.38;5352927;26;20430;-58
2024/04/18 09:30:46;;;;;;;;;;;;;;;7.05;100.00;99495.88;5323618;26;19926;-58
2024/04/18 09:33:16;;;;;;;;;;;;;;;7.11;100.00;99503.00;5332635;26;19926;-58
2024/04/18 09:35:48;;;;;;;;;;;;;;;7.22;100.00;99505.00;5327146;26;20003;-58
2024/04/18 09:38:20;;;;;;;;;;;;;;;7.27;100.00;99499.84;5329906;26;19940;-58
2024/04/18 09:40:51;;;;;;;;;;;;;;;7.44;100.00;99507.34;5319078;26;19929;-58
2024/04/18 09:43:24;;;;;;;;;;;;;;;9.10;98.60;99499.59;5323540;26;20376;-58
2024/04/18 09:46:00;;;;;;;;;;;;;;;9.64;92.26;99506.66;5320726;26;19932;-59
2024/04/18 09:48:30;;;;;;;;;;;;;;;9.02;95.15;99514.09;5328328;26;19925;-59
2024/04/18 09:51:01;;;;;;;;;;;;;;;9.30;94.22;99505.50;5329437;26;19933;-59
2024/04/18 09:53:31;;;;;;;;;;;;;;;8.77;93.01;99507.00;5323049;26;19935;-58
2024/04/18 09:56:01;;;;;;;;;;;;;;;8.51;94.82;99508.13;5316969;26;19956;-58
2024/04/18 09:58:31;;;;;;;;;;;;;;;8.53;92.54;99507.88;5328203;26;19932;-59
2024/04/18 10:01:04;;;;;;;;;;;;;;;8.20;91.98;99512.47;5329401;26;19933;-58
2024/04/18 10:03:34;;;;;;;;;;;;;;;9.06;96.14;99507.25;5327156;26;19937;-58
2024/04/18 10:06:05;;;;;;;;;;;;;;;9.19;90.42;99509.75;5323971;26;19934;-58
2024/04/18 10:08:36;;;;;;;;;;;;;;;10.72;85.87;99511.81;5297111;26;19929;-58
2024/04/18 10:11:06;;;;;;;;;;;;;;;12.21;77.80;99518.81;5328301;26;20058;-59
2024/04/18 10:13:38;;;;;;;;;;;;;;;12.57;67.72;99516.63;5320085;26;20288;-59
2024/04/18 10:16:12;;;;;;;;;;;;;;;11.57;77.11;99518.25;5356811;26;19942;-59
2024/04/18 10:18:44;;;;;;;;;;;;;;;10.94;80.52;99515.50;5325774;26;19986;-58
2024/04/18 10:21:14;;;;;;;;;;;;;;;9.77;86.76;99523.53;5324535;26;19938;-59
2024/04/18 10:23:49;;;;;;;;;;;;;;;9.80;84.94;99521.22;5330361;26;20273;-59
2024/04/18 10:26:19;;;;;;;;;;;;;;;11.24;71.53;99519.81;5323047;26;20311;-59
2024/04/18 10:28:49;;;;;;;;;;;;;;;12.86;69.02;99519.16;5329585;26;20042;-59
2024/04/18 10:31:22;;;;;;;;;;;;;;;12.85;66.16;99523.69;5330495;26;20688;-58
2024/04/18 10:33:52;;;;;;;;;;;;;;;11.54;73.73;99524.13;5323148;26;20364;-59
2024/04/18 10:36:23;;;;;;;;;;;;;;;10.92;72.77;99525.63;5321276;26;19925;-59
2024/04/18 10:38:53;;;;;;;;;;;;;;;10.36;70.91;99527.13;5331552;26;19926;-59
2024/04/18 10:41:23;;;;;;;;;;;;;;;10.20;75.75;99525.09;5325668;26;19933;-59
2024/04/18 10:43:57;;;;;;;;;;;;;;;9.96;77.80;99525.09;5313834;26;19937;-59
2024/04/18 10:46:29;;;;;;;;;;;;;;;9.62;77.37;99527.47;5328034;26;20733;-59
2024/04/18 10:48:59;;;;;;;;;;;;;;;9.20;84.67;99538.13;5317044;26;19937;-59
2024/04/18 10:51:29;;;;;;;;;;;;;;;9.17;84.82;99533.22;5327069;26;19950;-59
2024/04/18 10:54:00;;;;;;;;;;;;;;;8.72;84.16;99533.56;5324584;26;19953;-59
2024/04/18 10:56:30;;;;;;;;;;;;;;;8.62;87.96;99542.09;5317019;26;19926;-59
2024/04/18 10:59:02;;;;;;;;;;;;;;;8.46;93.48;99552.53;5329731;26;19930;-59
2024/04/18 11:01:39;;;;;;;;;;;;;;;8.52;90.32;99554.34;5323979;26;19926;-59
2024/04/18 11:04:09;;;;;;;;;;;;;;;8.62;95.71;99558.13;5310735;26;19927;-59
2024/04/18 11:06:39;;;;;;;;;;;;;;;8.79;94.49;99547.69;5320164;26;19937;-58
2024/04/18 11:09:10;;;;;;;;;;;;;;;8.91;95.12;99552.25;5331809;26;20361;-59
2024/04/18 11:11:39;;;;;;;;;;;;;;;9.01;90.68;99553.41;5328952;26;19933;-59
2024/04/18 11:14:10;;;;;;;;;;;;;;;9.23;94.06;99552.91;5327671;26;19933;-59
2024/04/18 11:16:43;;;;;;;;;;;;;;;9.46;92.01;99545.00;5321612;26;20423;-59
2024/04/18 11:19:13;;;;;;;;;;;;;;;9.72;91.12;99541.09;5323211;26;19926;-58
2024/04/18 11:21:43;;;;;;;;;;;;;;;10.86;85.43;99552.56;5321217;26;19927;-60
2024/04/18 11:24:13;;;;;;;;;;;;;;;10.33;87.57;99557.03;5297987;26;19926;-59
2024/04/18 11:26:43;;;;;;;;;;;;;;;11.09;85.63;99551.72;5322345;26;20357;-60
2024/04/18 11:29:13;;;;;;;;;;;;;;;9.85;89.04;99549.97;5329477;26;20258;-58
2024/04/18 11:31:46;;;;;;;;;;;;;;;10.57;83.52;99547.94;5325468;26;19932;-60
2024/04/18 11:34:16;;;;;;;;;;;;;;;11.13;78.18;99553.69;5329360;26;19966;-57
2024/04/18 11:36:46;;;;;;;;;;;;;;;11.42;82.76;99549.13;5324692;26;19926;-58
2024/04/18 11:39:16;;;;;;;;;;;;;;;11.40;78.35;99545.06;5325744;26;19926;-60
2024/04/18 11:41:46;;;;;;;;;;;;;;;11.80;76.55;99539.59;5326727;26;19937;-58
2024/04/18 11:44:16;;;;;;;;;;;;;;;12.72;70.66;99535.63;5326939;26;19926;-57
2024/04/18 11:46:50;;;;;;;;;;;;;;;12.90;67.58;99531.84;5318576;26;19996;-58
2024/04/18 11:49:20;;;;;;;;;;;;;;;12.21;64.36;99534.94;5319263;26;19934;-58
2024/04/18 11:51:53;;;;;;;;;;;;;;;12.38;63.25;99523.34;5327498;26;19932;-58
2024/04/18 11:54:23;;;;;;;;;;;;;;;12.46;68.31;99531.00;5328249;26;19934;-58
2024/04/18 11:56:53;;;;;;;;;;;;;;;12.05;65.71;99527.69;5323933;26;19926;-58
2024/04/18 11:59:37;;;;;;;;;;;;;;;11.61;71.15;99530.16;5325792;26;19926;-58
2024/04/18 12:02:09;;;;;;;;;;;;;;;11.43;71.07;99529.31;5329194;26;19933;-58
2024/04/18 12:04:55;;;;;;;;;;;;;;;11.37;73.48;99532.94;5323409;26;19933;-60
2024/04/18 12:07:25;;;;;;;;;;;;;;;11.08;73.51;99531.28;5310406;26;19926;-58
2024/04/18 12:09:55;;;;;;;;;;;;;;;10.41;73.97;99537.97;5328084;26;20345;-58
2024/04/18 12:12:25;;;;;;;;;;;;;;;10.07;74.33;99531.50;5325709;26;19926;-58
2024/04/18 12:14:55;;;;;;;;;;;;;;;10.25;74.97;99534.06;5313465;26;19930;-58
2024/04/18 12:17:31;;;;;;;;;;;;;;;10.20;75.59;99538.50;5325258;26;19938;-58
2024/04/18 12:20:19;;;;;;;;;;;;;;;10.80;73.93;99546.28;5323628;26;19940;-58
2024/04/18 12:22:49;;;;;;;;;;;;;;;10.65;75.23;99551.34;5327152;26;19938;-58
2024/04/18 12:25:19;;;;;;;;;;;;;;;11.87;68.40;99556.41;5322705;26;19996;-58
2024/04/18 12:27:51;;;;;;;;;;;;;;;11.54;64.57;99561.69;5325494;26;19933;-58
2024/04/18 12:30:34;;;;;;;;;;;;;;;11.74;60.93;99554.00;5326545;26;19926;-58
2024/04/18 12:33:23;;;;;;;;;;;;;;;11.40;62.63;99553.13;5327883;26;19926;-58
2024/04/18 12:35:52;;;;;;;;;;;;;;;11.37;61.35;99548.22;5326550;26;19937;-58
2024/04/18 12:38:22;;;;;;;;;;;;;;;11.81;61.16;99560.03;5328128;26;19937;-58
2024/04/18 12:40:59;;;;;;;;;;;;;;;11.42;60.53;99561.75;5326702;26;19988;-58
2024/04/18 12:43:32;;;;;;;;;;;;;;;11.95;60.82;99551.69;5325396;26;20668;-59
2024/04/18 12:46:03;;;;;;;;;;;;;;;12.66;59.08;99551.97;5326779;26;19994;-59
2024/04/18 12:48:56;;;;;;;;;;;;;;;12.62;60.58;99561.59;5327587;26;19954;-58
2024/04/18 12:51:26;;;;;;;;;;;;;;;12.16;59.27;99568.97;5320985;26;19925;-59
2024/04/18 12:53:56;;;;;;;;;;;;;;;12.05;62.17;99562.59;5315213;26;19950;-58
2024/04/18 12:56:47;;;;;;;;;;;;;;;11.89;61.69;99560.75;5324551;26;19933;-59
2024/04/18 12:59:24;;;;;;;;;;;;;;;11.83;66.36;99575.91;5329411;26;20684;-59
2024/04/18 13:01:54;;;;;;;;;;;;;;;11.67;61.54;99572.13;5328128;26;19926;-58
2024/04/18 13:04:26;;;;;;;;;;;;;;;10.83;64.51;99563.78;5329811;26;19958;-58
2024/04/18 13:06:57;;;;;;;;;;;;;;;10.95;66.25;99573.44;5323259;26;19938;-58
2024/04/18 13:09:32;;;;;;;;;;;;;;;11.44;67.50;99573.88;5325358;26;19930;-59
2024/04/18 13:12:06;;;;;;;;;;;;;;;10.90;66.38;99576.00;5321952;26;19934;-58
2024/04/18 13:14:54;;;;;;;;;;;;;;;10.57;64.36;99566.72;5323056;26;20345;-58
2024/04/18 13:17:28;;;;;;;;;;;;;;;10.52;65.78;99571.16;5328437;26;19926;-58
2024/04/18 13:20:01;;;;;;;;;;;;;;;10.76;66.00;99569.28;5327902;26;19937;-58
2024/04/18 13:22:32;;;;;;;;;;;;;;;10.64;69.47;99571.16;5323064;26;19927;-58
2024/04/18 13:25:02;;;;;;;;;;;;;;;10.42;69.13;99570.94;5331205;26;19933;-58